createdAt,value
2023-03-23T00:00:02.643Z,3.4347826086956523
2023-03-23T00:06:21.777Z,2.4381270903010033
2023-03-23T00:12:40.617Z,2.3812709030100336
2023-03-23T00:18:58.804Z,2.79933110367893
2023-03-23T00:49:10.716Z,4.013377926421405
2023-03-23T00:55:30.455Z,2.7859531772575252
2023-03-23T01:01:49.398Z,3.979933110367893
2023-03-23T01:08:08.368Z,2.983277591973244
2023-03-23T01:16:17.258Z,1.842809364548495
2023-03-23T01:22:36.325Z,2.3076923076923075
2023-03-23T01:34:14.064Z,3.8461538461538463
2023-03-23T01:47:06.296Z,4.391304347826087
2023-03-23T01:57:49.293Z,3.0434782608695654
2023-03-23T02:16:37.515Z,3.8060200668896322
2023-03-23T02:22:56.623Z,3.719063545150502
2023-03-23T02:29:15.584Z,3.839464882943144
2023-03-23T02:35:36.610Z,4.722408026755853
2023-03-23T02:43:21.469Z,4.334448160535117
2023-03-23T02:51:25.687Z,4.8193979933110365
2023-03-23T02:57:44.867Z,4.34113712374582
2023-03-23T03:04:03.744Z,5.0
2023-03-23T03:10:23.650Z,2.963210702341137
2023-03-23T03:16:42.821Z,3.6220735785953178
2023-03-23T03:23:01.606Z,4.384615384615385
2023-03-23T03:29:22.887Z,2.749163879598662
2023-03-23T03:35:42.349Z,3.2474916387959865
2023-03-23T03:48:08.544Z,2.979933110367893
2023-03-23T03:54:27.691Z,2.9163879598662206
2023-03-23T04:05:10.403Z,4.474916387959866
2023-03-23T04:11:32.675Z,3.819397993311037
2023-03-23T04:17:53.451Z,3.3578595317725752
2023-03-23T04:24:23.161Z,3.0668896321070234
2023-03-23T04:31:15.106Z,1.3177257525083612
2023-03-23T04:37:38.761Z,2.548494983277592
2023-03-23T04:44:01.660Z,1.9698996655518395
2023-03-23T04:54:57.192Z,3.508361204013378
2023-03-23T05:01:16.802Z,1.8093645484949832
2023-03-23T05:07:36.642Z,2.1672240802675584
2023-03-23T05:13:55.634Z,2.100334448160535
2023-03-23T05:24:48.559Z,2.568561872909699
2023-03-23T05:31:07.213Z,2.3812709030100336
2023-03-23T05:37:25.974Z,1.665551839464883
2023-03-23T05:43:44.161Z,1.4548494983277591
2023-03-23T05:50:03.591Z,2.387959866220736
2023-03-23T05:58:30.160Z,1.4983277591973243
2023-03-23T06:19:23.589Z,1.3377926421404682
2023-03-23T06:27:02.270Z,1.157190635451505
2023-03-23T06:33:23.798Z,1.140468227424749
2023-03-23T06:39:44.788Z,1.3444816053511706
2023-03-23T06:46:05.806Z,1.4581939799331103
2023-03-23T06:53:28.335Z,1.4882943143812708
2023-03-23T06:59:48.908Z,0.903010033444816
2023-03-23T07:08:32.798Z,1.5317725752508362
2023-03-23T07:17:34.553Z,1.0735785953177257
2023-03-23T07:23:55.335Z,1.5785953177257526
2023-03-23T07:30:50.694Z,1.8695652173913044
2023-03-23T07:37:11.851Z,1.8862876254180603
2023-03-23T07:43:32.837Z,2.3411371237458196
2023-03-23T07:51:44.501Z,1.5986622073578596
2023-03-23T07:58:05.468Z,0.8561872909698997
2023-03-23T08:04:26.471Z,1.5384615384615385
2023-03-23T08:10:48.053Z,1.491638795986622
2023-03-23T08:17:08.909Z,1.5986622073578596
2023-03-23T08:23:29.879Z,1.0234113712374582
2023-03-23T08:29:50.709Z,1.1270903010033444
2023-03-23T08:36:11.845Z,0.9899665551839465
2023-03-23T08:42:33.380Z,2.3779264214046822
2023-03-23T08:52:16.767Z,1.645484949832776
2023-03-23T09:02:03.301Z,1.9732441471571907
2023-03-23T09:17:41.510Z,1.859531772575251
2023-03-23T09:30:23.095Z,1.6120401337792643
2023-03-23T09:36:44.020Z,2.491638795986622
2023-03-23T09:43:05.335Z,1.548494983277592
2023-03-23T09:49:27.800Z,1.1772575250836121
2023-03-23T09:55:50.104Z,1.0100334448160535
2023-03-23T10:02:11.648Z,1.7491638795986622
2023-03-23T10:08:32.967Z,1.5986622073578596
2023-03-23T10:14:53.893Z,2.488294314381271
2023-03-23T10:22:22.849Z,2.4849498327759196
2023-03-23T10:28:43.471Z,2.080267558528428
2023-03-23T10:40:38.001Z,2.0
2023-03-23T10:46:58.782Z,2.6053511705685617
2023-03-23T10:53:20.098Z,1.7759197324414715
2023-03-23T11:00:53.686Z,2.140468227424749
2023-03-23T11:13:59.016Z,2.331103678929766
2023-03-23T11:24:48.527Z,2.5217391304347827
2023-03-23T11:35:13.770Z,1.6354515050167224
2023-03-23T11:41:37.389Z,2.3578595317725752
2023-03-23T11:47:58.353Z,2.725752508361204
2023-03-23T11:56:48.324Z,1.4816053511705685
2023-03-23T12:08:13.616Z,2.3745819397993313
2023-03-23T12:14:38.344Z,1.826086956521739
2023-03-23T12:20:59.573Z,2.076923076923077
2023-03-23T12:32:44.554Z,1.1872909698996656
2023-03-23T12:44:23.791Z,1.2909698996655519
2023-03-23T12:50:45.604Z,1.1036789297658862
2023-03-23T12:57:07.215Z,0.9832775919732442
2023-03-23T13:03:28.756Z,1.1872909698996656
2023-03-23T13:09:50.434Z,1.1471571906354514
2023-03-23T13:16:49.588Z,1.2073578595317727
2023-03-23T13:23:11.279Z,0.5351170568561873
2023-03-23T13:37:14.497Z,1.7190635451505016
2023-03-23T13:43:35.767Z,1.234113712374582
2023-03-23T13:49:57.360Z,1.2976588628762542
2023-03-23T13:56:18.559Z,1.5819397993311037
2023-03-23T14:07:01.854Z,0.9665551839464883
2023-03-23T14:13:23.702Z,1.5050167224080269
2023-03-23T14:20:04.818Z,1.1505016722408026
2023-03-23T14:26:25.772Z,0.8762541806020067
2023-03-23T14:32:48.987Z,1.2240802675585285
2023-03-23T14:39:10.572Z,1.648829431438127
2023-03-23T14:45:32.466Z,1.4983277591973243
2023-03-23T14:51:54.071Z,1.2441471571906355
2023-03-23T14:58:15.888Z,1.625418060200669
2023-03-23T15:04:37.925Z,1.3177257525083612
2023-03-23T15:10:59.691Z,1.6354515050167224
2023-03-23T15:21:51.066Z,1.8294314381270902
2023-03-23T15:28:35.767Z,2.25752508361204
2023-03-23T15:40:35.548Z,1.7424749163879598
2023-03-23T15:58:23.039Z,1.4046822742474916
2023-03-23T16:05:04.190Z,2.2140468227424748
2023-03-23T16:11:25.851Z,1.3979933110367893
2023-03-23T16:17:47.046Z,1.765886287625418
2023-03-23T16:24:08.096Z,1.4816053511705685
2023-03-23T16:40:39.220Z,1.4414715719063544
2023-03-23T16:47:00.080Z,1.5919732441471572
2023-03-23T17:02:16.141Z,1.3979933110367893
2023-03-23T17:15:03.720Z,1.2173913043478262
2023-03-23T17:21:24.991Z,0.9765886287625418
2023-03-23T17:27:46.062Z,0.9765886287625418
2023-03-23T17:34:07.663Z,1.0903010033444815
2023-03-23T17:40:26.651Z,1.4414715719063544
2023-03-23T17:46:45.963Z,1.4749163879598661
2023-03-23T17:53:05.682Z,1.9531772575250836
2023-03-23T17:59:24.620Z,2.4816053511705687
2023-03-23T18:05:43.885Z,2.1137123745819397
2023-03-23T18:12:04.135Z,1.7725752508361203
2023-03-23T18:18:28.952Z,2.040133779264214
2023-03-23T18:24:47.582Z,1.7190635451505016
2023-03-23T18:31:07.287Z,2.080267558528428
2023-03-23T18:37:27.186Z,1.6387959866220736
2023-03-23T18:43:47.741Z,2.240802675585284
2023-03-23T18:51:55.836Z,1.4782608695652173
2023-03-23T18:58:14.739Z,1.0033444816053512
2023-03-23T19:04:33.325Z,0.9163879598662207
2023-03-23T19:10:51.766Z,1.3578595317725752
2023-03-23T19:21:26.367Z,0.7424749163879598
2023-03-23T19:29:38.246Z,1.608695652173913
2023-03-23T19:36:09.193Z,1.5819397993311037
2023-03-23T19:42:33.197Z,1.1638795986622072
2023-03-23T19:48:53.123Z,1.0702341137123745
2023-03-23T19:59:50.648Z,1.334448160535117
2023-03-23T20:11:00.109Z,1.5986622073578596
2023-03-23T20:21:06.716Z,2.765886287625418
2023-03-23T20:27:27.055Z,2.1939799331103678
2023-03-23T20:33:46.064Z,1.31438127090301
2023-03-23T20:40:06.072Z,1.8026755852842808
2023-03-23T20:57:26.771Z,1.9264214046822743
2023-03-23T21:09:39.666Z,3.391304347826087
2023-03-23T21:19:45.918Z,3.234113712374582
2023-03-23T21:32:25.865Z,1.9565217391304348
2023-03-23T21:38:44.876Z,3.3645484949832776
2023-03-23T21:45:04.857Z,2.9899665551839463
2023-03-23T21:51:25.351Z,4.354515050167224
2023-03-23T21:57:43.825Z,2.311036789297659
2023-03-23T22:13:56.532Z,2.451505016722408
2023-03-23T22:20:16.472Z,2.9498327759197323
2023-03-23T22:26:35.530Z,3.240802675585284
2023-03-23T22:32:55.014Z,2.0234113712374584
2023-03-23T22:39:13.902Z,2.939799331103679
2023-03-23T22:45:32.479Z,2.8160535117056855
2023-03-23T22:51:51.327Z,3.076923076923077
2023-03-23T22:58:09.505Z,2.4414715719063547
2023-03-23T23:04:28.988Z,1.7558528428093645
2023-03-23T23:13:12.486Z,1.7993311036789297
2023-03-23T23:19:30.879Z,1.725752508361204
2023-03-23T23:25:50.435Z,1.9832775919732442
2023-03-23T23:32:09.801Z,1.2775919732441472
2023-03-23T23:43:25.515Z,1.4983277591973243
2023-03-23T23:49:44.905Z,1.434782608695652
2023-03-23T23:56:03.846Z,1.6789297658862876
